createdAt,value
2023-02-03T00:00:25.266Z,7.01
2023-02-03T00:02:53.651Z,7.01
2023-02-03T00:05:23.654Z,6.98
2023-02-03T00:07:51.998Z,6.94
2023-02-03T00:10:21.722Z,6.90
2023-02-03T00:12:52.765Z,6.92
2023-02-03T00:15:23.263Z,6.98
2023-02-03T00:17:51.512Z,7.00
2023-02-03T00:20:19.768Z,7.00
2023-02-03T00:22:49.329Z,6.99
2023-02-03T00:25:17.512Z,6.97
2023-02-03T00:27:45.884Z,6.94
2023-02-03T00:30:14.935Z,6.90
2023-02-03T00:32:43.142Z,6.88
2023-02-03T00:35:12.997Z,6.87
2023-02-03T00:37:41.237Z,6.86
2023-02-03T00:40:11.785Z,6.84
2023-02-03T00:42:40.038Z,6.80
2023-02-03T00:45:08.963Z,6.76
2023-02-03T00:47:37.249Z,6.74
2023-02-03T00:50:06.016Z,6.75
2023-02-03T00:52:34.393Z,6.75
2023-02-03T00:55:03.496Z,6.75
2023-02-03T00:57:33.054Z,6.71
2023-02-03T01:00:01.265Z,6.68
2023-02-03T01:02:30.420Z,6.66
2023-02-03T01:04:58.644Z,6.59
2023-02-03T01:07:27.610Z,6.50
2023-02-03T01:09:55.775Z,6.44
2023-02-03T01:12:23.972Z,6.44
2023-02-03T01:14:53.640Z,6.45
2023-02-03T01:17:21.824Z,6.52
2023-02-03T01:19:51.340Z,6.58
2023-02-03T01:22:19.692Z,6.59
2023-02-03T01:24:47.810Z,6.62
2023-02-03T01:27:16.083Z,6.65
2023-02-03T01:29:44.222Z,6.59
2023-02-03T01:32:13.751Z,6.54
2023-02-03T01:34:41.874Z,6.48
2023-02-03T01:37:10.043Z,6.46
2023-02-03T01:39:38.271Z,6.42
2023-02-03T01:42:06.853Z,6.40
2023-02-03T01:44:42.541Z,6.40
2023-02-03T01:47:19.769Z,6.42
2023-02-03T01:49:53.893Z,6.37
2023-02-03T01:52:22.139Z,6.40
2023-02-03T01:54:53.278Z,6.35
2023-02-03T01:57:25.866Z,6.32
2023-02-03T01:59:57.275Z,6.27
2023-02-03T02:02:27.156Z,6.24
2023-02-03T02:04:59.534Z,6.21
2023-02-03T02:07:28.099Z,6.20
2023-02-03T02:09:57.080Z,6.24
2023-02-03T02:12:25.396Z,6.25
2023-02-03T02:14:53.797Z,6.31
2023-02-03T02:17:58.743Z,6.32
2023-02-03T02:20:47.178Z,6.29
2023-02-03T02:23:46.787Z,6.22
2023-02-03T02:26:39.880Z,6.19
2023-02-03T02:29:29.705Z,6.21
2023-02-03T02:32:07.993Z,6.24
2023-02-03T02:34:50.542Z,6.25
2023-02-03T02:37:27.433Z,6.26
2023-02-03T02:40:05.878Z,6.25
2023-02-03T02:42:38.690Z,6.18
2023-02-03T02:45:13.423Z,6.14
2023-02-03T02:47:43.473Z,6.13
2023-02-03T02:50:17.683Z,6.19
2023-02-03T02:52:48.162Z,6.30
2023-02-03T02:55:24.797Z,6.35
2023-02-03T02:57:58.955Z,6.36
2023-02-03T03:00:31.476Z,6.43
2023-02-03T03:03:13.554Z,6.44
2023-02-03T03:05:44.703Z,6.46
2023-02-03T03:08:17.783Z,6.51
2023-02-03T03:10:48.443Z,6.54
2023-02-03T03:13:24.082Z,6.57
2023-02-03T03:15:55.102Z,6.60
2023-02-03T03:18:29.812Z,6.66
2023-02-03T03:21:06.113Z,6.70
2023-02-03T03:23:39.749Z,6.72
2023-02-03T03:26:14.172Z,6.77
2023-02-03T03:28:49.533Z,6.81
2023-02-03T03:31:19.206Z,6.84
2023-02-03T03:33:49.834Z,6.86
2023-02-03T03:36:26.272Z,6.89
2023-02-03T03:39:01.972Z,6.92
2023-02-03T03:41:41.121Z,6.91
2023-02-03T03:44:14.557Z,6.89
2023-02-03T03:46:47.255Z,6.89
2023-02-03T03:49:20.081Z,6.95
2023-02-03T03:51:50.451Z,6.98
2023-02-03T03:54:21.926Z,7.01
2023-02-03T03:56:58.248Z,7.03
2023-02-03T03:59:30.182Z,7.02
2023-02-03T04:02:04.740Z,6.98
2023-02-03T04:04:38.582Z,6.90
2023-02-03T04:07:06.823Z,6.86
2023-02-03T04:09:37.054Z,6.87
2023-02-03T04:12:06.755Z,6.90
2023-02-03T04:14:38.860Z,6.92
2023-02-03T04:17:07.514Z,6.90
2023-02-03T04:19:36.990Z,6.89
2023-02-03T04:22:06.683Z,6.85
2023-02-03T04:24:34.827Z,6.82
2023-02-03T04:27:05.154Z,6.82
2023-02-03T04:29:33.844Z,6.78
2023-02-03T04:32:02.074Z,6.75
2023-02-03T04:34:30.252Z,6.72
2023-02-03T04:36:59.884Z,6.70
2023-02-03T04:39:28.117Z,6.66
2023-02-03T04:41:56.294Z,6.65
2023-02-03T04:44:24.579Z,6.64
2023-02-03T04:46:52.702Z,6.62
2023-02-03T04:49:20.912Z,6.60
2023-02-03T04:51:50.168Z,6.55
2023-02-03T04:54:19.720Z,6.50
2023-02-03T04:56:47.905Z,6.45
2023-02-03T04:59:16.162Z,6.37
2023-02-03T05:01:44.393Z,6.31
2023-02-03T05:04:12.623Z,6.28
2023-02-03T05:06:40.811Z,6.37
2023-02-03T05:09:08.978Z,6.37
2023-02-03T05:11:38.641Z,6.38
2023-02-03T05:14:07.516Z,6.37
2023-02-03T05:16:35.668Z,6.34
2023-02-03T05:19:04.049Z,6.27
2023-02-03T05:21:32.251Z,6.36
2023-02-03T05:24:00.521Z,6.41
2023-02-03T05:26:28.717Z,6.38
2023-02-03T05:28:58.230Z,6.39
2023-02-03T05:31:26.468Z,6.41
2023-02-03T05:33:54.653Z,6.47
2023-02-03T05:36:22.809Z,6.46
2023-02-03T05:38:51.039Z,6.46
2023-02-03T05:41:36.485Z,6.44
2023-02-03T05:44:06.194Z,6.40
2023-02-03T05:46:34.408Z,6.34
2023-02-03T05:49:02.639Z,6.35
2023-02-03T05:51:30.821Z,6.31
2023-02-03T05:53:59.023Z,6.24
2023-02-03T05:56:27.498Z,6.26
2023-02-03T05:58:55.742Z,6.26
2023-02-03T06:01:25.520Z,6.25
2023-02-03T06:03:53.943Z,6.27
2023-02-03T06:06:22.191Z,6.27
2023-02-03T06:08:52.392Z,6.32
2023-02-03T06:11:20.537Z,6.30
2023-02-03T06:13:48.958Z,6.25
2023-02-03T06:16:17.418Z,6.23
2023-02-03T06:18:46.992Z,6.22
2023-02-03T06:21:15.112Z,6.26
2023-02-03T06:23:43.283Z,6.26
2023-02-03T06:26:11.525Z,6.28
2023-02-03T06:28:39.763Z,6.32
2023-02-03T06:31:08.463Z,6.37
2023-02-03T06:33:36.714Z,6.37
2023-02-03T06:36:06.744Z,6.34
2023-02-03T06:38:35.009Z,6.30
2023-02-03T06:41:03.151Z,6.26
2023-02-03T06:43:31.395Z,6.24
2023-02-03T06:45:59.639Z,6.20
2023-02-03T06:48:28.146Z,6.26
2023-02-03T06:50:56.659Z,6.27
2023-02-03T06:53:26.191Z,6.25
2023-02-03T06:55:54.367Z,6.28
2023-02-03T06:58:22.569Z,6.27
2023-02-03T07:00:51.526Z,6.25
2023-02-03T07:03:19.839Z,6.24
2023-02-03T07:05:48.100Z,6.21
2023-02-03T07:08:16.337Z,6.20
2023-02-03T07:10:45.925Z,6.23
2023-02-03T07:13:14.142Z,6.31
2023-02-03T07:15:42.340Z,6.30
2023-02-03T07:18:11.703Z,6.33
2023-02-03T07:20:40.028Z,6.36
2023-02-03T07:23:08.333Z,6.38
2023-02-03T07:25:36.621Z,6.34
2023-02-03T07:28:06.424Z,6.37
2023-02-03T07:30:34.667Z,6.32
2023-02-03T07:33:03.425Z,6.28
2023-02-03T07:35:31.604Z,6.25
2023-02-03T07:37:59.783Z,6.23
2023-02-03T07:40:28.209Z,6.25
2023-02-03T07:42:56.690Z,6.20
2023-02-03T07:45:26.182Z,6.19
2023-02-03T07:47:54.437Z,6.18
2023-02-03T07:50:22.542Z,6.15
2023-02-03T07:52:52.365Z,6.14
2023-02-03T07:55:20.714Z,6.14
2023-02-03T07:57:48.950Z,6.14
2023-02-03T08:00:18.201Z,6.13
2023-02-03T08:02:48.337Z,6.11
2023-02-03T08:05:17.549Z,6.09
2023-02-03T08:07:46.366Z,6.14
2023-02-03T08:10:17.902Z,6.16
2023-02-03T08:12:47.168Z,6.16
2023-02-03T08:15:15.899Z,6.12
2023-02-03T08:17:44.635Z,6.06
2023-02-03T08:20:14.518Z,6.05
2023-02-03T08:22:42.770Z,6.05
2023-02-03T08:25:11.571Z,6.12
2023-02-03T08:27:41.357Z,6.14
2023-02-03T08:30:16.550Z,6.16
2023-02-03T08:32:44.865Z,6.12
2023-02-03T08:35:14.482Z,6.15
2023-02-03T08:37:43.054Z,6.20
2023-02-03T08:40:12.443Z,6.20
2023-02-03T08:42:40.933Z,6.20
2023-02-03T08:45:09.719Z,6.25
2023-02-03T08:47:39.281Z,6.33
2023-02-03T08:50:09.165Z,6.42
2023-02-03T08:52:39.284Z,6.43
2023-02-03T08:55:08.065Z,6.50
2023-02-03T08:57:37.492Z,6.57
2023-02-03T09:00:06.351Z,6.62
2023-02-03T09:02:34.611Z,6.68
2023-02-03T09:05:02.973Z,6.72
2023-02-03T09:07:31.296Z,6.75
2023-02-03T09:10:00.774Z,6.82
2023-02-03T09:12:29.007Z,6.88
2023-02-03T09:14:57.222Z,6.96
2023-02-03T09:17:25.417Z,7.01
2023-02-03T09:19:53.725Z,7.06
2023-02-03T09:22:22.056Z,7.13
2023-02-03T09:24:51.434Z,7.18
2023-02-03T09:27:20.977Z,7.25
2023-02-03T09:29:49.242Z,7.29
2023-02-03T09:32:17.581Z,7.33
2023-02-03T09:34:45.799Z,7.35
2023-02-03T09:37:14.227Z,7.38
2023-02-03T09:39:42.629Z,7.42
2023-02-03T09:42:28.783Z,7.45
2023-02-03T09:45:09.903Z,7.49
2023-02-03T09:47:42.776Z,7.53
2023-02-03T09:50:15.452Z,7.57
2023-02-03T09:52:44.329Z,7.62
2023-02-03T09:55:29.765Z,7.68
2023-02-03T09:58:05.304Z,7.68
2023-02-03T10:00:37.703Z,7.68
2023-02-03T10:03:12.998Z,7.68
2023-02-03T10:05:58.613Z,7.69
2023-02-03T10:08:43.088Z,7.69
2023-02-03T10:11:23.007Z,7.72
2023-02-03T10:14:05.580Z,7.73
2023-02-03T10:16:44.332Z,7.70
2023-02-03T10:19:34.772Z,7.71
2023-02-03T10:22:05.894Z,7.73
2023-02-03T10:24:42.002Z,7.74
2023-02-03T10:27:17.654Z,7.78
2023-02-03T10:29:54.590Z,7.79
2023-02-03T10:32:25.414Z,7.81
2023-02-03T10:34:53.827Z,7.88
2023-02-03T10:37:30.345Z,7.91
2023-02-03T10:40:00.378Z,7.96
2023-02-03T10:42:51.218Z,8.01
2023-02-03T10:45:21.919Z,8.00
2023-02-03T10:47:52.999Z,7.99
2023-02-03T10:50:24.554Z,7.96
2023-02-03T10:52:52.865Z,7.99
2023-02-03T10:55:39.311Z,8.02
2023-02-03T10:58:16.581Z,8.04
2023-02-03T11:00:46.528Z,8.06
2023-02-03T11:03:24.450Z,8.07
2023-02-03T11:06:07.888Z,8.05
2023-02-03T11:08:37.328Z,8.05
2023-02-03T11:11:07.657Z,8.02
2023-02-03T11:13:36.176Z,7.99
2023-02-03T11:16:08.098Z,7.96
2023-02-03T11:18:58.104Z,7.97
2023-02-03T11:21:29.537Z,7.99
2023-02-03T11:24:03.983Z,8.03
2023-02-03T11:26:36.290Z,8.05
2023-02-03T11:29:08.226Z,8.05
2023-02-03T11:31:38.630Z,8.05
2023-02-03T11:34:11.389Z,8.07
2023-02-03T11:36:39.713Z,8.09
2023-02-03T11:39:18.379Z,8.08
2023-02-03T11:41:47.591Z,8.05
2023-02-03T11:44:20.946Z,8.04
2023-02-03T11:46:54.309Z,8.01
2023-02-03T11:49:58.239Z,8.04
2023-02-03T11:52:48.889Z,8.04
2023-02-03T11:55:32.653Z,8.06
2023-02-03T11:58:18.119Z,8.07
2023-02-03T12:00:58.241Z,8.11
2023-02-03T12:03:56.442Z,8.15
2023-02-03T12:06:42.701Z,8.19
2023-02-03T12:09:24.984Z,8.24
2023-02-03T12:12:08.470Z,8.35
2023-02-03T12:14:50.874Z,8.49
2023-02-03T12:17:46.021Z,8.59
2023-02-03T12:20:31.354Z,8.70
2023-02-03T12:23:13.473Z,8.75
2023-02-03T12:25:58.371Z,8.78
2023-02-03T12:28:42.556Z,8.77
2023-02-03T12:31:19.555Z,8.69
2023-02-03T12:33:53.760Z,8.63
2023-02-03T12:36:28.485Z,8.65
2023-02-03T12:39:02.779Z,8.65
2023-02-03T12:41:36.262Z,8.64
2023-02-03T12:44:09.793Z,8.60
2023-02-03T12:46:42.520Z,8.51
2023-02-03T12:49:17.822Z,8.45
2023-02-03T12:51:53.630Z,8.44
2023-02-03T12:54:34.737Z,8.44
2023-02-03T12:57:15.657Z,8.44
2023-02-03T12:59:59.299Z,8.41
2023-02-03T13:02:31.252Z,8.38
2023-02-03T13:05:06.987Z,8.37
2023-02-03T13:07:41.755Z,8.37
2023-02-03T13:10:20.417Z,8.37
2023-02-03T13:12:52.788Z,8.38
2023-02-03T13:15:28.080Z,8.41
2023-02-03T13:18:00.857Z,8.45
2023-02-03T13:20:31.559Z,8.59
2023-02-03T13:23:02.371Z,8.76
2023-02-03T13:25:41.575Z,8.87
2023-02-03T13:28:20.141Z,8.90
2023-02-03T13:31:07.151Z,8.95
2023-02-03T13:34:04.013Z,9.00
2023-02-03T13:36:59.412Z,9.02
2023-02-03T13:39:41.781Z,9.04
2023-02-03T13:42:22.226Z,9.07
2023-02-03T13:44:53.892Z,9.02
2023-02-03T13:47:27.596Z,8.94
2023-02-03T13:49:59.950Z,8.86
2023-02-03T13:52:34.863Z,8.79
2023-02-03T13:55:06.059Z,8.75
2023-02-03T13:57:37.049Z,8.71
2023-02-03T14:00:07.901Z,8.63
2023-02-03T14:02:46.696Z,8.61
2023-02-03T14:05:41.715Z,8.63
2023-02-03T14:08:47.088Z,8.61
2023-02-03T14:11:46.135Z,8.61
2023-02-03T14:14:51.471Z,8.59
2023-02-03T14:17:58.231Z,8.51
2023-02-03T14:20:59.718Z,8.44
2023-02-03T14:23:35.390Z,8.40
2023-02-03T14:26:04.389Z,8.36
2023-02-03T14:28:41.619Z,8.36
2023-02-03T14:31:16.732Z,8.34
2023-02-03T14:33:55.849Z,8.32
2023-02-03T14:36:35.159Z,8.30
2023-02-03T14:39:24.391Z,8.27
2023-02-03T14:42:01.796Z,8.25
2023-02-03T14:44:41.454Z,8.24
2023-02-03T14:47:18.880Z,8.19
2023-02-03T14:50:05.023Z,8.18
2023-02-03T14:52:50.381Z,8.16
2023-02-03T14:55:36.704Z,8.20
2023-02-03T14:58:15.163Z,8.22
2023-02-03T15:00:44.910Z,8.22
2023-02-03T15:03:22.959Z,8.24
2023-02-03T15:05:53.661Z,8.24
2023-02-03T15:08:42.653Z,8.23
2023-02-03T15:11:24.881Z,8.20
2023-02-03T15:13:54.101Z,8.19
2023-02-03T15:16:27.163Z,8.19
2023-02-03T15:18:57.451Z,8.20
2023-02-03T15:21:26.135Z,8.20
2023-02-03T15:23:55.432Z,8.20
2023-02-03T15:26:25.428Z,8.20
2023-02-03T15:28:57.610Z,8.15
2023-02-03T15:31:34.447Z,8.13
2023-02-03T15:34:08.825Z,8.12
2023-02-03T15:36:43.338Z,8.12
2023-02-03T15:39:23.128Z,8.13
2023-02-03T15:41:55.929Z,8.13
2023-02-03T15:44:32.069Z,8.16
2023-02-03T15:47:05.342Z,8.19
2023-02-03T15:49:40.091Z,8.17
2023-02-03T15:52:14.451Z,8.19
2023-02-03T15:54:46.745Z,8.20
2023-02-03T15:57:20.840Z,8.23
2023-02-03T15:59:56.202Z,8.25
2023-02-03T16:02:31.176Z,8.26
2023-02-03T16:04:59.974Z,8.26
2023-02-03T16:07:30.747Z,8.25
2023-02-03T16:10:00.088Z,8.25
2023-02-03T16:12:29.772Z,8.25
2023-02-03T16:15:00.023Z,8.23
2023-02-03T16:17:32.488Z,8.19
2023-02-03T16:20:24.165Z,8.15
2023-02-03T16:23:19.947Z,8.18
2023-02-03T16:26:03.637Z,8.15
2023-02-03T16:28:49.595Z,8.13
2023-02-03T16:31:37.357Z,8.11
2023-02-03T16:34:33.362Z,8.12
2023-02-03T16:37:18.896Z,8.10
2023-02-03T16:40:04.561Z,8.11
2023-02-03T16:42:57.311Z,8.08
2023-02-03T16:45:43.667Z,8.08
2023-02-03T16:48:30.430Z,8.04
2023-02-03T16:51:06.100Z,7.96
2023-02-03T16:53:34.661Z,7.92
2023-02-03T16:56:05.379Z,7.88
2023-02-03T16:58:34.001Z,7.81
2023-02-03T17:01:05.228Z,7.76
2023-02-03T17:03:35.829Z,7.73
2023-02-03T17:06:07.736Z,7.74
2023-02-03T17:08:36.616Z,7.74
2023-02-03T17:11:07.380Z,7.72
2023-02-03T17:13:36.874Z,7.71
2023-02-03T17:16:12.155Z,7.70
2023-02-03T17:18:41.177Z,7.68
2023-02-03T17:21:13.640Z,7.67
2023-02-03T17:23:42.161Z,7.65
2023-02-03T17:26:10.554Z,7.64
2023-02-03T17:28:42.999Z,7.60
2023-02-03T17:31:15.661Z,7.60
2023-02-03T17:33:44.203Z,7.61
2023-02-03T17:36:16.786Z,7.58
2023-02-03T17:55:23.113Z,7.68
2023-02-03T17:57:51.503Z,7.67
2023-02-03T18:00:20.180Z,7.65
2023-02-03T18:02:50.708Z,7.63
2023-02-03T18:05:19.701Z,7.63
2023-02-03T18:07:49.349Z,7.61
2023-02-03T18:10:18.054Z,7.63
2023-02-03T18:12:46.204Z,7.63
2023-02-03T18:15:14.561Z,7.63
2023-02-03T18:17:42.805Z,7.62
2023-02-03T18:20:12.266Z,7.59
2023-02-03T18:22:40.730Z,7.56
2023-02-03T18:25:10.499Z,7.54
2023-02-03T18:27:38.845Z,7.53
2023-02-03T18:30:09.075Z,7.51
2023-02-03T18:32:37.400Z,7.48
2023-02-03T18:35:11.213Z,7.44
2023-02-03T18:37:39.460Z,7.38
2023-02-03T18:40:08.744Z,7.32
2023-02-03T18:42:38.388Z,7.29
2023-02-03T18:45:07.070Z,7.28
2023-02-03T18:47:35.401Z,7.25
2023-02-03T18:50:03.657Z,7.21
2023-02-03T18:52:31.875Z,7.17
2023-02-03T18:55:00.172Z,7.15
2023-02-03T18:57:28.658Z,7.10
2023-02-03T18:59:58.194Z,7.09
2023-02-03T19:02:28.135Z,7.07
2023-02-03T19:04:56.465Z,7.06
2023-02-03T19:07:25.267Z,7.04
2023-02-03T19:09:53.643Z,7.05
2023-02-03T19:12:21.760Z,7.04
2023-02-03T19:14:50.010Z,7.05
2023-02-03T19:17:19.632Z,7.01
2023-02-03T19:19:47.974Z,7.00
2023-02-03T19:22:16.542Z,6.99
2023-02-03T19:24:44.791Z,7.01
2023-02-03T19:27:13.065Z,6.98
2023-02-03T19:29:41.325Z,6.96
2023-02-03T19:32:13.184Z,6.95
2023-02-03T19:34:43.634Z,6.93
2023-02-03T19:37:11.895Z,6.91
2023-02-03T19:39:40.876Z,6.91
2023-02-03T19:42:09.175Z,6.86
2023-02-03T19:44:37.751Z,6.81
2023-02-03T19:47:06.100Z,6.77
2023-02-03T19:49:34.356Z,6.73
2023-02-03T19:52:03.981Z,6.69
2023-02-03T19:54:33.086Z,6.66
2023-02-03T19:57:01.898Z,6.62
2023-02-03T19:59:30.141Z,6.59
2023-02-03T20:02:04.045Z,6.56
2023-02-03T20:04:37.795Z,6.53
2023-02-03T20:07:07.571Z,6.53
2023-02-03T20:09:35.782Z,6.50
2023-02-03T20:12:03.955Z,6.49
2023-02-03T20:14:32.763Z,6.49
2023-02-03T20:17:03.341Z,6.51
2023-02-03T20:19:31.495Z,6.57
2023-02-03T20:22:00.764Z,6.57
2023-02-03T20:24:30.374Z,6.60
2023-02-03T20:26:58.628Z,6.63
2023-02-03T20:29:26.867Z,6.63
2023-02-03T20:31:55.656Z,6.62
2023-02-03T20:34:24.069Z,6.63
2023-02-03T20:36:54.170Z,6.64
2023-02-03T20:39:23.402Z,6.64
2023-02-03T20:41:52.991Z,6.62
2023-02-03T20:44:21.413Z,6.59
2023-02-03T20:46:51.747Z,6.54
2023-02-03T20:49:20.191Z,6.53
2023-02-03T20:51:49.188Z,6.50
2023-02-03T20:54:23.629Z,6.48
2023-02-03T20:56:53.261Z,6.46
2023-02-03T20:59:21.644Z,6.44
2023-02-03T21:01:51.560Z,6.42
2023-02-03T21:04:38.165Z,6.40
2023-02-03T21:07:14.959Z,6.38
2023-02-03T21:09:43.458Z,6.28
2023-02-03T21:12:15.103Z,6.17
2023-02-03T21:14:45.842Z,6.10
2023-02-03T21:17:18.374Z,6.06
2023-02-03T21:19:46.959Z,6.01
2023-02-03T21:22:19.285Z,6.01
2023-02-03T21:24:51.332Z,6.04
2023-02-03T21:27:25.835Z,6.10
2023-02-03T21:29:56.771Z,6.12
2023-02-03T21:32:26.946Z,6.16
2023-02-03T21:34:55.223Z,6.20
2023-02-03T21:37:42.758Z,6.25
2023-02-03T21:40:22.425Z,6.29
2023-02-03T21:42:52.720Z,6.34
2023-02-03T21:45:35.504Z,6.34
2023-02-03T21:48:24.851Z,6.30
2023-02-03T21:50:53.964Z,6.23
2023-02-03T21:53:27.965Z,6.14
2023-02-03T21:55:56.393Z,6.08
2023-02-03T21:58:29.111Z,6.04
2023-02-03T22:00:59.850Z,5.99
2023-02-03T22:03:31.494Z,5.96
2023-02-03T22:06:17.627Z,5.92
2023-02-03T22:08:48.197Z,5.89
2023-02-03T22:11:18.494Z,5.89
2023-02-03T22:13:49.007Z,5.90
2023-02-03T22:16:18.321Z,5.91
2023-02-03T22:18:47.802Z,5.92
2023-02-03T22:21:16.273Z,5.92
2023-02-03T22:23:44.778Z,5.91
2023-02-03T22:26:14.039Z,5.91
2023-02-03T22:28:43.173Z,5.89
2023-02-03T22:31:13.308Z,5.84
2023-02-03T22:33:42.323Z,5.82
2023-02-03T22:36:11.729Z,5.80
2023-02-03T22:38:41.606Z,5.82
2023-02-03T22:41:11.945Z,5.82
2023-02-03T22:43:40.818Z,5.84
2023-02-03T22:46:09.550Z,5.84
2023-02-03T22:48:39.091Z,5.83
2023-02-03T22:51:07.492Z,5.81
2023-02-03T22:53:35.893Z,5.78
2023-02-03T22:56:04.278Z,5.78
2023-02-03T22:58:32.618Z,5.78
2023-02-03T23:01:00.775Z,5.76
2023-02-03T23:03:32.199Z,5.77
2023-02-03T23:06:01.816Z,5.73
2023-02-03T23:08:30.105Z,5.66
2023-02-03T23:10:58.732Z,5.61
2023-02-03T23:13:27.002Z,5.60
2023-02-03T23:15:55.367Z,5.59
2023-02-03T23:18:23.531Z,5.56
2023-02-03T23:20:51.774Z,5.54
2023-02-03T23:23:21.298Z,5.52
2023-02-03T23:25:49.552Z,5.48
2023-02-03T23:28:17.754Z,5.44
2023-02-03T23:30:46.146Z,5.39
2023-02-03T23:33:14.282Z,5.32
2023-02-03T23:35:47.158Z,5.27
2023-02-03T23:38:16.185Z,5.25
2023-02-03T23:40:47.879Z,5.24
2023-02-03T23:43:16.987Z,5.22
2023-02-03T23:45:45.171Z,5.19
2023-02-03T23:48:13.667Z,5.17
2023-02-03T23:50:41.973Z,5.16
2023-02-03T23:53:10.786Z,5.12
2023-02-03T23:55:38.923Z,5.11
2023-02-03T23:58:08.762Z,5.12
